This is the latest recevied weather packets stored in our database for station/object KE8GJZ-2. If no packets are shown the sender has not sent any weather packets the latest 10 day(s).
| Time | Temp. | Humidity | Pressure | Rain* | Wind** | Luminosity | Snow |
|---|---|---|---|---|---|---|---|
| 1777587999 | 8.89° C | 57% | 1014.9 hPa | 0 mm | - | 29 W/m² | - |
| 1777587695 | 8.89° C | 55% | 1014.7 hPa | 0 mm | - | 36 W/m² | - |
| 1777587395 | 8.89° C | 56% | 1014.9 hPa | 0 mm | - | 46 W/m² | - |
| 1777587091 | 8.89° C | 53% | 1014.8 hPa | 0 mm | - | 46 W/m² | - |
| 1777586787 | 8.89° C | 54% | 1014.8 hPa | 0 mm | - | 55 W/m² | - |
| 1777586483 | 8.89° C | 51% | 1014.9 hPa | 0 mm | - | 51 W/m² | - |
| 1777586178 | 8.89° C | 53% | 1014.7 hPa | 0 mm | - | 67 W/m² | - |
| 1777585876 | 9.44° C | 51% | 1014.7 hPa | 0 mm | - | 81 W/m² | - |
| 1777585571 | 8.89° C | 51% | 1014.7 hPa | 0 mm | - | 82 W/m² | - |
| 1777585267 | 8.89° C | 50% | 1014.8 hPa | 0 mm | - | 82 W/m² | - |
| 1777584961 | 9.44° C | 50% | 1014.9 hPa | 0 mm | - | 97 W/m² | - |
| 1777584659 | 9.44° C | 50% | 1014.7 hPa | 0 mm | - | 125 W/m² | - |
| 1777584356 | 8.89° C | 50% | 1015 hPa | 0 mm | - | 126 W/m² | - |
| 1777584051 | 9.44° C | 51% | 1014.7 hPa | 0 mm | - | 127 W/m² | - |
| 1777583746 | 9.44° C | 53% | 1014.8 hPa | 0 mm | - | 150 W/m² | - |
| 1777583445 | 9.44° C | 50% | 1015 hPa | 0 mm | - | 157 W/m² | - |
| 1777583145 | 10° C | 53% | 1014.9 hPa | 0 mm | - | 185 W/m² | - |
| 1777582841 | 9.44° C | 51% | 1015 hPa | 0 mm | - | 177 W/m² | - |
| 1777582538 | 9.44° C | 51% | 1015.2 hPa | 0 mm | - | 181 W/m² | - |
| 1777582233 | 9.44° C | 54% | 1015.2 hPa | 0 mm | - | 251 W/m² | - |
| 1777581931 | 9.44° C | 51% | 1015.3 hPa | 0 mm | - | 218 W/m² | - |
| 1777581627 | 9.44° C | 52% | 1015.3 hPa | 0 mm | - | 168 W/m² | - |
| 1777581321 | 9.44° C | 49% | 1015.4 hPa | 0 mm | - | 200 W/m² | - |
| 1777581016 | 9.44° C | 56% | 1015.3 hPa | 0 mm | - | 262 W/m² | - |
| 1777580715 | 9.44° C | 55% | 1015.3 hPa | 0 mm | - | 235 W/m² | - |
* Rain latest hour (hover to see other rain measurements)
** Current wind speed in m/s (hover to see current wind gust speed)